sensor_id;sensor_type;location;lat;lon;timestamp;P1;durP1;ratioP1;P2;durP2;ratioP2
21814;SDS011;11069;48.988;8.450;2023-03-23T00:01:52;1.40;;;1.13;;
21814;SDS011;11069;48.988;8.450;2023-03-23T00:04:18;1.75;;;1.20;;
21814;SDS011;11069;48.988;8.450;2023-03-23T00:06:45;2.30;;;1.20;;
21814;SDS011;11069;48.988;8.450;2023-03-23T00:09:13;3.08;;;1.30;;
21814;SDS011;11069;48.988;8.450;2023-03-23T00:11:40;2.05;;;1.40;;
21814;SDS011;11069;48.988;8.450;2023-03-23T00:14:06;3.00;;;1.30;;
21814;SDS011;11069;48.988;8.450;2023-03-23T00:16:38;1.52;;;1.40;;
21814;SDS011;11069;48.988;8.450;2023-03-23T00:19:07;2.78;;;1.40;;
21814;SDS011;11069;48.988;8.450;2023-03-23T00:21:40;1.75;;;1.20;;
21814;SDS011;11069;48.988;8.450;2023-03-23T00:26:35;2.08;;;1.60;;
21814;SDS011;11069;48.988;8.450;2023-03-23T00:29:05;1.73;;;1.40;;
21814;SDS011;11069;48.988;8.450;2023-03-23T00:34:12;2.53;;;1.30;;
21814;SDS011;11069;48.988;8.450;2023-03-23T00:36:46;1.30;;;1.10;;
21814;SDS011;11069;48.988;8.450;2023-03-23T00:39:14;1.52;;;1.25;;
21814;SDS011;11069;48.988;8.450;2023-03-23T00:41:41;1.83;;;1.38;;
21814;SDS011;11069;48.988;8.450;2023-03-23T00:44:11;2.75;;;1.52;;
21814;SDS011;11069;48.988;8.450;2023-03-23T00:46:42;4.53;;;1.40;;
21814;SDS011;11069;48.988;8.450;2023-03-23T00:49:14;2.05;;;1.48;;
21814;SDS011;11069;48.988;8.450;2023-03-23T00:51:41;2.78;;;1.50;;
21814;SDS011;11069;48.988;8.450;2023-03-23T00:54:08;1.30;;;1.20;;
21814;SDS011;11069;48.988;8.450;2023-03-23T00:56:34;1.50;;;1.38;;
21814;SDS011;11069;48.988;8.450;2023-03-23T00:59:00;1.63;;;1.40;;
21814;SDS011;11069;48.988;8.450;2023-03-23T01:01:26;1.80;;;1.40;;
21814;SDS011;11069;48.988;8.450;2023-03-23T01:03:52;1.35;;;1.20;;
21814;SDS011;11069;48.988;8.450;2023-03-23T01:06:25;2.72;;;1.42;;
21814;SDS011;11069;48.988;8.450;2023-03-23T01:08:52;1.45;;;1.30;;
21814;SDS011;11069;48.988;8.450;2023-03-23T01:11:19;1.40;;;1.30;;
21814;SDS011;11069;48.988;8.450;2023-03-23T01:13:45;1.73;;;1.35;;
21814;SDS011;11069;48.988;8.450;2023-03-23T01:16:11;1.35;;;1.23;;
21814;SDS011;11069;48.988;8.450;2023-03-23T01:18:37;2.42;;;1.33;;
21814;SDS011;11069;48.988;8.450;2023-03-23T01:21:07;3.38;;;1.30;;
21814;SDS011;11069;48.988;8.450;2023-03-23T01:23:37;3.13;;;1.65;;
21814;SDS011;11069;48.988;8.450;2023-03-23T01:26:08;2.35;;;1.60;;
21814;SDS011;11069;48.988;8.450;2023-03-23T01:28:36;1.75;;;1.33;;
21814;SDS011;11069;48.988;8.450;2023-03-23T01:31:02;2.15;;;1.40;;
21814;SDS011;11069;48.988;8.450;2023-03-23T01:33:30;2.42;;;1.55;;
21814;SDS011;11069;48.988;8.450;2023-03-23T01:35:56;1.73;;;1.40;;
21814;SDS011;11069;48.988;8.450;2023-03-23T01:38:22;1.73;;;1.48;;
21814;SDS011;11069;48.988;8.450;2023-03-23T01:40:48;1.65;;;1.50;;
21814;SDS011;11069;48.988;8.450;2023-03-23T01:43:14;1.80;;;1.52;;
21814;SDS011;11069;48.988;8.450;2023-03-23T01:45:41;2.25;;;1.48;;
21814;SDS011;11069;48.988;8.450;2023-03-23T01:48:29;1.70;;;1.20;;
21814;SDS011;11069;48.988;8.450;2023-03-23T01:53:23;1.63;;;1.40;;
21814;SDS011;11069;48.988;8.450;2023-03-23T01:58:21;3.58;;;1.63;;
21814;SDS011;11069;48.988;8.450;2023-03-23T02:00:52;2.20;;;1.30;;
21814;SDS011;11069;48.988;8.450;2023-03-23T02:03:20;2.05;;;1.30;;
21814;SDS011;11069;48.988;8.450;2023-03-23T02:05:48;4.22;;;1.40;;
21814;SDS011;11069;48.988;8.450;2023-03-23T02:08:14;4.63;;;1.50;;
21814;SDS011;11069;48.988;8.450;2023-03-23T02:10:43;2.10;;;1.40;;
21814;SDS011;11069;48.988;8.450;2023-03-23T02:13:09;2.83;;;1.27;;
21814;SDS011;11069;48.988;8.450;2023-03-23T02:15:43;2.15;;;1.55;;
21814;SDS011;11069;48.988;8.450;2023-03-23T02:21:39;2.60;;;1.63;;
21814;SDS011;11069;48.988;8.450;2023-03-23T02:24:18;4.07;;;1.50;;
21814;SDS011;11069;48.988;8.450;2023-03-23T02:34:45;2.35;;;1.50;;
21814;SDS011;11069;48.988;8.450;2023-03-23T02:37:23;1.52;;;1.35;;
21814;SDS011;11069;48.988;8.450;2023-03-23T02:39:56;2.53;;;1.60;;
21814;SDS011;11069;48.988;8.450;2023-03-23T02:42:32;2.05;;;1.55;;
21814;SDS011;11069;48.988;8.450;2023-03-23T02:45:01;1.83;;;1.40;;
21814;SDS011;11069;48.988;8.450;2023-03-23T02:49:56;2.40;;;1.48;;
21814;SDS011;11069;48.988;8.450;2023-03-23T02:52:26;2.88;;;1.52;;
21814;SDS011;11069;48.988;8.450;2023-03-23T02:54:55;2.45;;;1.50;;
21814;SDS011;11069;48.988;8.450;2023-03-23T02:57:23;2.08;;;1.58;;
21814;SDS011;11069;48.988;8.450;2023-03-23T02:59:51;2.50;;;1.60;;
21814;SDS011;11069;48.988;8.450;2023-03-23T03:02:35;3.03;;;1.48;;
21814;SDS011;11069;48.988;8.450;2023-03-23T03:08:15;1.90;;;1.30;;
21814;SDS011;11069;48.988;8.450;2023-03-23T03:21:21;2.75;;;1.52;;
21814;SDS011;11069;48.988;8.450;2023-03-23T03:23:50;1.40;;;1.25;;
21814;SDS011;11069;48.988;8.450;2023-03-23T03:26:21;2.70;;;1.80;;
21814;SDS011;11069;48.988;8.450;2023-03-23T03:28:51;2.55;;;1.70;;
21814;SDS011;11069;48.988;8.450;2023-03-23T03:31:19;1.67;;;1.50;;
21814;SDS011;11069;48.988;8.450;2023-03-23T03:33:47;2.90;;;1.55;;
21814;SDS011;11069;48.988;8.450;2023-03-23T03:36:17;2.42;;;1.40;;
21814;SDS011;11069;48.988;8.450;2023-03-23T03:38:48;2.30;;;1.30;;
21814;SDS011;11069;48.988;8.450;2023-03-23T03:41:15;1.50;;;1.40;;
21814;SDS011;11069;48.988;8.450;2023-03-23T03:43:41;2.53;;;1.48;;
21814;SDS011;11069;48.988;8.450;2023-03-23T03:46:07;2.10;;;1.67;;
21814;SDS011;11069;48.988;8.450;2023-03-23T03:48:33;2.40;;;1.70;;
21814;SDS011;11069;48.988;8.450;2023-03-23T03:50:59;1.60;;;1.50;;
21814;SDS011;11069;48.988;8.450;2023-03-23T03:53:25;2.83;;;1.50;;
21814;SDS011;11069;48.988;8.450;2023-03-23T03:55:51;2.30;;;1.70;;
21814;SDS011;11069;48.988;8.450;2023-03-23T03:58:20;2.13;;;1.45;;
21814;SDS011;11069;48.988;8.450;2023-03-23T04:00:46;2.25;;;1.52;;
21814;SDS011;11069;48.988;8.450;2023-03-23T04:03:15;2.25;;;1.50;;
21814;SDS011;11069;48.988;8.450;2023-03-23T04:05:46;2.80;;;1.70;;
21814;SDS011;11069;48.988;8.450;2023-03-23T04:08:12;1.70;;;1.50;;
21814;SDS011;11069;48.988;8.450;2023-03-23T04:10:38;4.82;;;1.63;;
21814;SDS011;11069;48.988;8.450;2023-03-23T04:13:04;5.88;;;1.75;;
21814;SDS011;11069;48.988;8.450;2023-03-23T04:15:30;2.13;;;1.50;;
21814;SDS011;11069;48.988;8.450;2023-03-23T04:17:55;3.22;;;1.88;;
21814;SDS011;11069;48.988;8.450;2023-03-23T04:20:22;2.22;;;1.60;;
21814;SDS011;11069;48.988;8.450;2023-03-23T04:22:48;6.80;;;1.70;;
21814;SDS011;11069;48.988;8.450;2023-03-23T04:25:14;2.38;;;1.70;;
21814;SDS011;11069;48.988;8.450;2023-03-23T04:27:42;3.10;;;1.67;;
21814;SDS011;11069;48.988;8.450;2023-03-23T04:30:08;4.35;;;1.50;;
21814;SDS011;11069;48.988;8.450;2023-03-23T04:32:35;3.72;;;1.65;;
21814;SDS011;11069;48.988;8.450;2023-03-23T04:37:33;3.25;;;1.90;;
21814;SDS011;11069;48.988;8.450;2023-03-23T04:39:59;2.10;;;1.73;;
21814;SDS011;11069;48.988;8.450;2023-03-23T04:42:27;5.38;;;1.70;;
21814;SDS011;11069;48.988;8.450;2023-03-23T04:44:53;2.85;;;1.83;;
21814;SDS011;11069;48.988;8.450;2023-03-23T04:47:20;2.35;;;1.80;;
21814;SDS011;11069;48.988;8.450;2023-03-23T04:49:45;2.90;;;1.73;;
21814;SDS011;11069;48.988;8.450;2023-03-23T04:52:11;2.97;;;1.80;;
21814;SDS011;11069;48.988;8.450;2023-03-23T04:54:36;2.75;;;1.90;;
21814;SDS011;11069;48.988;8.450;2023-03-23T04:57:02;4.55;;;1.90;;
21814;SDS011;11069;48.988;8.450;2023-03-23T04:59:28;3.65;;;1.83;;
21814;SDS011;11069;48.988;8.450;2023-03-23T05:01:55;2.53;;;1.70;;
21814;SDS011;11069;48.988;8.450;2023-03-23T05:04:21;2.75;;;1.77;;
21814;SDS011;11069;48.988;8.450;2023-03-23T05:06:50;2.70;;;1.70;;
21814;SDS011;11069;48.988;8.450;2023-03-23T05:09:18;2.08;;;1.60;;
21814;SDS011;11069;48.988;8.450;2023-03-23T05:11:44;2.00;;;1.73;;
21814;SDS011;11069;48.988;8.450;2023-03-23T05:14:10;2.30;;;1.70;;
21814;SDS011;11069;48.988;8.450;2023-03-23T05:16:36;3.97;;;2.10;;
21814;SDS011;11069;48.988;8.450;2023-03-23T05:19:02;3.72;;;1.73;;
21814;SDS011;11069;48.988;8.450;2023-03-23T05:21:29;3.45;;;1.90;;
21814;SDS011;11069;48.988;8.450;2023-03-23T05:23:55;3.42;;;2.03;;
21814;SDS011;11069;48.988;8.450;2023-03-23T05:26:21;3.40;;;2.28;;
21814;SDS011;11069;48.988;8.450;2023-03-23T05:28:48;5.63;;;2.38;;
21814;SDS011;11069;48.988;8.450;2023-03-23T05:31:17;3.47;;;1.85;;
21814;SDS011;11069;48.988;8.450;2023-03-23T05:33:44;3.05;;;2.20;;
21814;SDS011;11069;48.988;8.450;2023-03-23T05:36:10;3.03;;;2.25;;
21814;SDS011;11069;48.988;8.450;2023-03-23T05:38:38;3.33;;;2.03;;
21814;SDS011;11069;48.988;8.450;2023-03-23T05:41:07;2.85;;;2.15;;
21814;SDS011;11069;48.988;8.450;2023-03-23T05:43:32;3.38;;;2.10;;
21814;SDS011;11069;48.988;8.450;2023-03-23T05:45:58;3.38;;;2.30;;
21814;SDS011;11069;48.988;8.450;2023-03-23T05:48:24;4.40;;;2.10;;
21814;SDS011;11069;48.988;8.450;2023-03-23T05:50:50;5.07;;;2.80;;
21814;SDS011;11069;48.988;8.450;2023-03-23T05:53:16;3.35;;;2.30;;
21814;SDS011;11069;48.988;8.450;2023-03-23T05:55:41;3.58;;;2.17;;
21814;SDS011;11069;48.988;8.450;2023-03-23T05:58:07;2.85;;;2.55;;
21814;SDS011;11069;48.988;8.450;2023-03-23T06:00:32;2.55;;;2.08;;
21814;SDS011;11069;48.988;8.450;2023-03-23T06:02:59;3.38;;;2.28;;
21814;SDS011;11069;48.988;8.450;2023-03-23T06:05:26;4.45;;;2.80;;
21814;SDS011;11069;48.988;8.450;2023-03-23T06:07:52;3.40;;;2.70;;
21814;SDS011;11069;48.988;8.450;2023-03-23T06:10:18;4.25;;;2.50;;
21814;SDS011;11069;48.988;8.450;2023-03-23T06:12:44;3.50;;;2.67;;
21814;SDS011;11069;48.988;8.450;2023-03-23T06:15:10;5.68;;;2.85;;
21814;SDS011;11069;48.988;8.450;2023-03-23T06:17:37;3.47;;;2.67;;
21814;SDS011;11069;48.988;8.450;2023-03-23T06:20:04;3.60;;;2.78;;
21814;SDS011;11069;48.988;8.450;2023-03-23T06:22:38;2.90;;;2.38;;
21814;SDS011;11069;48.988;8.450;2023-03-23T06:25:05;4.57;;;2.20;;
21814;SDS011;11069;48.988;8.450;2023-03-23T06:27:31;4.05;;;2.70;;
21814;SDS011;11069;48.988;8.450;2023-03-23T06:30:00;3.67;;;2.30;;
21814;SDS011;11069;48.988;8.450;2023-03-23T06:32:27;4.13;;;2.55;;
21814;SDS011;11069;48.988;8.450;2023-03-23T06:34:55;2.42;;;2.17;;
21814;SDS011;11069;48.988;8.450;2023-03-23T06:37:22;4.90;;;2.40;;
21814;SDS011;11069;48.988;8.450;2023-03-23T06:39:48;3.20;;;2.10;;
21814;SDS011;11069;48.988;8.450;2023-03-23T06:42:14;4.30;;;2.47;;
21814;SDS011;11069;48.988;8.450;2023-03-23T06:44:39;3.83;;;2.60;;
21814;SDS011;11069;48.988;8.450;2023-03-23T06:47:05;3.53;;;2.30;;
21814;SDS011;11069;48.988;8.450;2023-03-23T06:49:32;3.35;;;2.40;;
21814;SDS011;11069;48.988;8.450;2023-03-23T06:51:58;5.53;;;2.42;;
21814;SDS011;11069;48.988;8.450;2023-03-23T06:54:26;2.47;;;2.28;;
21814;SDS011;11069;48.988;8.450;2023-03-23T06:56:52;3.58;;;2.60;;
21814;SDS011;11069;48.988;8.450;2023-03-23T06:59:18;5.03;;;2.60;;
21814;SDS011;11069;48.988;8.450;2023-03-23T07:01:44;4.68;;;2.78;;
21814;SDS011;11069;48.988;8.450;2023-03-23T07:04:11;3.05;;;2.75;;
21814;SDS011;11069;48.988;8.450;2023-03-23T07:06:37;5.38;;;3.13;;
21814;SDS011;11069;48.988;8.450;2023-03-23T07:09:03;3.75;;;2.60;;
21814;SDS011;11069;48.988;8.450;2023-03-23T07:11:29;6.00;;;2.85;;
21814;SDS011;11069;48.988;8.450;2023-03-23T07:13:54;3.47;;;2.78;;
21814;SDS011;11069;48.988;8.450;2023-03-23T07:16:20;3.97;;;2.70;;
21814;SDS011;11069;48.988;8.450;2023-03-23T07:18:46;4.85;;;2.88;;
21814;SDS011;11069;48.988;8.450;2023-03-23T07:21:11;4.50;;;2.97;;
21814;SDS011;11069;48.988;8.450;2023-03-23T07:23:37;5.25;;;2.67;;
21814;SDS011;11069;48.988;8.450;2023-03-23T07:26:03;3.35;;;2.90;;
21814;SDS011;11069;48.988;8.450;2023-03-23T07:28:29;4.50;;;2.90;;
21814;SDS011;11069;48.988;8.450;2023-03-23T07:30:55;6.07;;;3.38;;
21814;SDS011;11069;48.988;8.450;2023-03-23T07:33:20;4.57;;;3.17;;
21814;SDS011;11069;48.988;8.450;2023-03-23T07:35:47;5.90;;;3.42;;
21814;SDS011;11069;48.988;8.450;2023-03-23T07:38:13;5.00;;;3.20;;
21814;SDS011;11069;48.988;8.450;2023-03-23T07:40:39;5.85;;;3.20;;
21814;SDS011;11069;48.988;8.450;2023-03-23T07:43:05;4.95;;;3.28;;
21814;SDS011;11069;48.988;8.450;2023-03-23T07:45:31;5.47;;;3.60;;
21814;SDS011;11069;48.988;8.450;2023-03-23T07:47:57;5.55;;;3.47;;
21814;SDS011;11069;48.988;8.450;2023-03-23T07:50:22;5.85;;;3.72;;
21814;SDS011;11069;48.988;8.450;2023-03-23T07:52:49;4.85;;;3.45;;
21814;SDS011;11069;48.988;8.450;2023-03-23T07:55:16;5.95;;;3.58;;
21814;SDS011;11069;48.988;8.450;2023-03-23T07:57:45;5.72;;;3.67;;
21814;SDS011;11069;48.988;8.450;2023-03-23T08:00:12;5.40;;;3.38;;
21814;SDS011;11069;48.988;8.450;2023-03-23T08:02:46;3.95;;;3.15;;
21814;SDS011;11069;48.988;8.450;2023-03-23T08:05:13;4.72;;;3.33;;
21814;SDS011;11069;48.988;8.450;2023-03-23T08:07:40;5.50;;;3.53;;
21814;SDS011;11069;48.988;8.450;2023-03-23T08:10:07;6.18;;;3.28;;
21814;SDS011;11069;48.988;8.450;2023-03-23T08:12:35;4.47;;;3.15;;
21814;SDS011;11069;48.988;8.450;2023-03-23T08:15:01;7.93;;;3.40;;
21814;SDS011;11069;48.988;8.450;2023-03-23T08:17:28;3.70;;;2.95;;
21814;SDS011;11069;48.988;8.450;2023-03-23T08:19:53;5.50;;;2.90;;
21814;SDS011;11069;48.988;8.450;2023-03-23T08:22:19;8.70;;;3.50;;
21814;SDS011;11069;48.988;8.450;2023-03-23T08:24:46;6.20;;;2.95;;
21814;SDS011;11069;48.988;8.450;2023-03-23T08:27:11;3.88;;;2.92;;
21814;SDS011;11069;48.988;8.450;2023-03-23T08:29:37;5.30;;;3.45;;
21814;SDS011;11069;48.988;8.450;2023-03-23T08:32:03;4.03;;;2.90;;
21814;SDS011;11069;48.988;8.450;2023-03-23T08:34:29;5.05;;;3.10;;
21814;SDS011;11069;48.988;8.450;2023-03-23T08:36:55;5.18;;;2.60;;
21814;SDS011;11069;48.988;8.450;2023-03-23T08:39:21;3.78;;;3.00;;
21814;SDS011;11069;48.988;8.450;2023-03-23T08:41:48;3.35;;;2.70;;
21814;SDS011;11069;48.988;8.450;2023-03-23T08:44:14;3.28;;;2.65;;
21814;SDS011;11069;48.988;8.450;2023-03-23T08:46:40;5.20;;;2.75;;
21814;SDS011;11069;48.988;8.450;2023-03-23T08:49:06;4.82;;;3.00;;
21814;SDS011;11069;48.988;8.450;2023-03-23T08:51:32;3.88;;;2.85;;
21814;SDS011;11069;48.988;8.450;2023-03-23T08:53:58;6.00;;;3.20;;
21814;SDS011;11069;48.988;8.450;2023-03-23T08:56:24;4.10;;;3.22;;
21814;SDS011;11069;48.988;8.450;2023-03-23T08:58:49;5.07;;;3.13;;
21814;SDS011;11069;48.988;8.450;2023-03-23T09:01:15;4.45;;;3.10;;
21814;SDS011;11069;48.988;8.450;2023-03-23T09:03:41;5.00;;;2.65;;
21814;SDS011;11069;48.988;8.450;2023-03-23T09:06:07;4.72;;;2.47;;
21814;SDS011;11069;48.988;8.450;2023-03-23T09:08:34;2.72;;;2.10;;
21814;SDS011;11069;48.988;8.450;2023-03-23T09:11:04;3.17;;;2.10;;
21814;SDS011;11069;48.988;8.450;2023-03-23T09:13:32;3.22;;;2.28;;
21814;SDS011;11069;48.988;8.450;2023-03-23T09:15:58;3.28;;;2.42;;
21814;SDS011;11069;48.988;8.450;2023-03-23T09:18:24;3.17;;;2.00;;
21814;SDS011;11069;48.988;8.450;2023-03-23T09:20:50;3.80;;;2.08;;
21814;SDS011;11069;48.988;8.450;2023-03-23T09:23:17;2.95;;;2.00;;
21814;SDS011;11069;48.988;8.450;2023-03-23T09:25:43;2.53;;;1.90;;
21814;SDS011;11069;48.988;8.450;2023-03-23T09:28:09;1.90;;;1.40;;
21814;SDS011;11069;48.988;8.450;2023-03-23T09:30:35;2.83;;;1.60;;
21814;SDS011;11069;48.988;8.450;2023-03-23T09:33:03;1.90;;;1.50;;
21814;SDS011;11069;48.988;8.450;2023-03-23T09:35:30;2.95;;;1.95;;
21814;SDS011;11069;48.988;8.450;2023-03-23T09:37:59;2.95;;;1.80;;
21814;SDS011;11069;48.988;8.450;2023-03-23T09:40:32;2.83;;;1.80;;
21814;SDS011;11069;48.988;8.450;2023-03-23T09:55:46;4.57;;;2.13;;
21814;SDS011;11069;48.988;8.450;2023-03-23T10:03:33;2.78;;;2.13;;
21814;SDS011;11069;48.988;8.450;2023-03-23T10:06:03;2.03;;;1.80;;
21814;SDS011;11069;48.988;8.450;2023-03-23T10:08:30;3.95;;;1.95;;
21814;SDS011;11069;48.988;8.450;2023-03-23T10:14:07;3.55;;;1.73;;
21814;SDS011;11069;48.988;8.450;2023-03-23T10:22:02;2.72;;;2.00;;
21814;SDS011;11069;48.988;8.450;2023-03-23T10:24:51;3.15;;;1.90;;
21814;SDS011;11069;48.988;8.450;2023-03-23T10:35:20;3.35;;;1.83;;
21814;SDS011;11069;48.988;8.450;2023-03-23T10:38:06;2.05;;;1.63;;
21814;SDS011;11069;48.988;8.450;2023-03-23T10:40:45;3.38;;;2.03;;
21814;SDS011;11069;48.988;8.450;2023-03-23T10:43:14;2.60;;;1.77;;
21814;SDS011;11069;48.988;8.450;2023-03-23T10:45:40;4.43;;;2.20;;
21814;SDS011;11069;48.988;8.450;2023-03-23T10:48:11;3.15;;;2.22;;
21814;SDS011;11069;48.988;8.450;2023-03-23T10:50:41;2.58;;;1.63;;
21814;SDS011;11069;48.988;8.450;2023-03-23T10:53:14;3.67;;;1.80;;
21814;SDS011;11069;48.988;8.450;2023-03-23T10:55:43;3.55;;;1.90;;
21814;SDS011;11069;48.988;8.450;2023-03-23T10:58:11;2.72;;;1.85;;
21814;SDS011;11069;48.988;8.450;2023-03-23T11:00:47;3.00;;;1.92;;
21814;SDS011;11069;48.988;8.450;2023-03-23T11:08:11;3.72;;;2.10;;
21814;SDS011;11069;48.988;8.450;2023-03-23T11:10:47;2.13;;;1.85;;
21814;SDS011;11069;48.988;8.450;2023-03-23T11:13:18;2.13;;;1.60;;
21814;SDS011;11069;48.988;8.450;2023-03-23T11:15:46;3.05;;;2.20;;
21814;SDS011;11069;48.988;8.450;2023-03-23T11:18:22;3.22;;;1.80;;
21814;SDS011;11069;48.988;8.450;2023-03-23T11:21:11;4.22;;;2.00;;
21814;SDS011;11069;48.988;8.450;2023-03-23T11:23:39;2.60;;;2.03;;
21814;SDS011;11069;48.988;8.450;2023-03-23T11:31:35;4.38;;;2.20;;
21814;SDS011;11069;48.988;8.450;2023-03-23T11:34:10;3.58;;;2.30;;
21814;SDS011;11069;48.988;8.450;2023-03-23T11:36:48;4.38;;;2.22;;
21814;SDS011;11069;48.988;8.450;2023-03-23T11:39:25;3.00;;;2.60;;
21814;SDS011;11069;48.988;8.450;2023-03-23T11:41:53;4.07;;;2.30;;
21814;SDS011;11069;48.988;8.450;2023-03-23T11:44:20;3.90;;;2.60;;
21814;SDS011;11069;48.988;8.450;2023-03-23T11:49:29;4.15;;;2.60;;
21814;SDS011;11069;48.988;8.450;2023-03-23T11:54:50;3.10;;;2.60;;
21814;SDS011;11069;48.988;8.450;2023-03-23T11:57:21;3.90;;;2.40;;
21814;SDS011;11069;48.988;8.450;2023-03-23T11:59:49;3.72;;;2.58;;
21814;SDS011;11069;48.988;8.450;2023-03-23T12:02:29;3.67;;;2.30;;
21814;SDS011;11069;48.988;8.450;2023-03-23T12:15:53;2.20;;;2.00;;
21814;SDS011;11069;48.988;8.450;2023-03-23T12:23:55;3.33;;;2.17;;
21814;SDS011;11069;48.988;8.450;2023-03-23T12:26:37;2.55;;;2.00;;
21814;SDS011;11069;48.988;8.450;2023-03-23T12:32:47;2.35;;;1.95;;
21814;SDS011;11069;48.988;8.450;2023-03-23T12:42:39;2.22;;;1.67;;
21814;SDS011;11069;48.988;8.450;2023-03-23T12:48:12;2.00;;;1.80;;
21814;SDS011;11069;48.988;8.450;2023-03-23T12:53:12;2.58;;;1.50;;
21814;SDS011;11069;48.988;8.450;2023-03-23T12:58:21;1.65;;;1.48;;
21814;SDS011;11069;48.988;8.450;2023-03-23T13:08:56;2.60;;;1.70;;
21814;SDS011;11069;48.988;8.450;2023-03-23T13:11:32;1.40;;;1.30;;
21814;SDS011;11069;48.988;8.450;2023-03-23T13:14:13;1.90;;;1.55;;
21814;SDS011;11069;48.988;8.450;2023-03-23T13:16:49;1.85;;;1.52;;
21814;SDS011;11069;48.988;8.450;2023-03-23T13:24:36;2.63;;;1.60;;
21814;SDS011;11069;48.988;8.450;2023-03-23T13:27:08;2.10;;;1.60;;
21814;SDS011;11069;48.988;8.450;2023-03-23T13:29:36;2.17;;;1.90;;
21814;SDS011;11069;48.988;8.450;2023-03-23T13:32:19;3.53;;;1.50;;
21814;SDS011;11069;48.988;8.450;2023-03-23T13:34:46;3.80;;;1.95;;
21814;SDS011;11069;48.988;8.450;2023-03-23T13:42:28;3.88;;;1.90;;
21814;SDS011;11069;48.988;8.450;2023-03-23T13:45:18;3.58;;;2.00;;
21814;SDS011;11069;48.988;8.450;2023-03-23T13:47:46;2.35;;;2.00;;
21814;SDS011;11069;48.988;8.450;2023-03-23T14:05:40;3.30;;;2.90;;
21814;SDS011;11069;48.988;8.450;2023-03-23T14:16:25;2.97;;;2.67;;
21814;SDS011;11069;48.988;8.450;2023-03-23T14:18:56;4.53;;;2.92;;
21814;SDS011;11069;48.988;8.450;2023-03-23T14:23:53;3.72;;;2.60;;
21814;SDS011;11069;48.988;8.450;2023-03-23T14:26:21;7.25;;;2.67;;
21814;SDS011;11069;48.988;8.450;2023-03-23T14:28:50;3.92;;;2.83;;
21814;SDS011;11069;48.988;8.450;2023-03-23T14:31:20;2.92;;;2.53;;
21814;SDS011;11069;48.988;8.450;2023-03-23T14:33:49;3.20;;;2.70;;
21814;SDS011;11069;48.988;8.450;2023-03-23T14:36:22;2.60;;;2.40;;
21814;SDS011;11069;48.988;8.450;2023-03-23T14:41:31;3.63;;;2.60;;
21814;SDS011;11069;48.988;8.450;2023-03-23T14:43:58;3.85;;;2.75;;
21814;SDS011;11069;48.988;8.450;2023-03-23T14:46:25;4.38;;;2.80;;
21814;SDS011;11069;48.988;8.450;2023-03-23T14:48:52;3.13;;;2.50;;
21814;SDS011;11069;48.988;8.450;2023-03-23T14:51:18;4.32;;;2.80;;
21814;SDS011;11069;48.988;8.450;2023-03-23T14:53:45;3.10;;;2.47;;
21814;SDS011;11069;48.988;8.450;2023-03-23T14:56:22;4.55;;;2.80;;
21814;SDS011;11069;48.988;8.450;2023-03-23T14:58:52;4.43;;;2.80;;
21814;SDS011;11069;48.988;8.450;2023-03-23T15:01:26;2.60;;;2.28;;
21814;SDS011;11069;48.988;8.450;2023-03-23T15:06:26;3.58;;;2.53;;
21814;SDS011;11069;48.988;8.450;2023-03-23T15:08:56;3.45;;;2.60;;
21814;SDS011;11069;48.988;8.450;2023-03-23T15:11:28;4.78;;;2.70;;
21814;SDS011;11069;48.988;8.450;2023-03-23T15:13:58;3.33;;;2.70;;
21814;SDS011;11069;48.988;8.450;2023-03-23T15:16:29;3.60;;;2.70;;
21814;SDS011;11069;48.988;8.450;2023-03-23T15:19:01;5.47;;;2.95;;
21814;SDS011;11069;48.988;8.450;2023-03-23T15:21:29;5.32;;;3.05;;
21814;SDS011;11069;48.988;8.450;2023-03-23T15:23:58;3.65;;;2.83;;
21814;SDS011;11069;48.988;8.450;2023-03-23T15:26:29;6.22;;;3.10;;
21814;SDS011;11069;48.988;8.450;2023-03-23T15:31:41;4.22;;;3.00;;
21814;SDS011;11069;48.988;8.450;2023-03-23T15:34:14;4.22;;;2.65;;
21814;SDS011;11069;48.988;8.450;2023-03-23T15:36:44;3.55;;;2.45;;
21814;SDS011;11069;48.988;8.450;2023-03-23T15:39:11;2.72;;;2.53;;
21814;SDS011;11069;48.988;8.450;2023-03-23T15:41:45;5.22;;;2.53;;
21814;SDS011;11069;48.988;8.450;2023-03-23T15:44:20;3.65;;;2.53;;
21814;SDS011;11069;48.988;8.450;2023-03-23T15:46:50;4.72;;;3.08;;
21814;SDS011;11069;48.988;8.450;2023-03-23T15:49:17;3.63;;;2.42;;
21814;SDS011;11069;48.988;8.450;2023-03-23T15:51:43;4.30;;;2.55;;
21814;SDS011;11069;48.988;8.450;2023-03-23T15:54:12;2.80;;;2.50;;
21814;SDS011;11069;48.988;8.450;2023-03-23T15:56:39;3.00;;;2.65;;
21814;SDS011;11069;48.988;8.450;2023-03-23T15:59:06;2.78;;;2.42;;
21814;SDS011;11069;48.988;8.450;2023-03-23T16:01:33;3.15;;;2.70;;
21814;SDS011;11069;48.988;8.450;2023-03-23T16:03:59;3.05;;;2.70;;
21814;SDS011;11069;48.988;8.450;2023-03-23T16:06:31;3.33;;;2.58;;
21814;SDS011;11069;48.988;8.450;2023-03-23T16:08:58;6.15;;;2.85;;
21814;SDS011;11069;48.988;8.450;2023-03-23T16:11:25;3.60;;;3.03;;
21814;SDS011;11069;48.988;8.450;2023-03-23T16:13:53;5.20;;;2.80;;
21814;SDS011;11069;48.988;8.450;2023-03-23T16:19:11;7.03;;;3.28;;
21814;SDS011;11069;48.988;8.450;2023-03-23T16:21:38;4.03;;;3.15;;
21814;SDS011;11069;48.988;8.450;2023-03-23T16:24:05;3.30;;;2.80;;
21814;SDS011;11069;48.988;8.450;2023-03-23T16:26:32;4.75;;;2.78;;
21814;SDS011;11069;48.988;8.450;2023-03-23T16:28:57;3.90;;;3.10;;
21814;SDS011;11069;48.988;8.450;2023-03-23T16:31:23;5.22;;;3.35;;
21814;SDS011;11069;48.988;8.450;2023-03-23T16:33:49;5.53;;;3.50;;
21814;SDS011;11069;48.988;8.450;2023-03-23T16:36:15;6.20;;;3.55;;
21814;SDS011;11069;48.988;8.450;2023-03-23T16:38:40;4.63;;;3.30;;
21814;SDS011;11069;48.988;8.450;2023-03-23T16:41:06;3.20;;;2.90;;
21814;SDS011;11069;48.988;8.450;2023-03-23T16:43:33;4.40;;;3.38;;
21814;SDS011;11069;48.988;8.450;2023-03-23T16:45:58;5.72;;;3.45;;
21814;SDS011;11069;48.988;8.450;2023-03-23T16:48:24;5.70;;;3.22;;
21814;SDS011;11069;48.988;8.450;2023-03-23T16:50:50;3.45;;;3.00;;
21814;SDS011;11069;48.988;8.450;2023-03-23T16:53:17;7.15;;;3.60;;
21814;SDS011;11069;48.988;8.450;2023-03-23T16:55:42;5.47;;;3.80;;
21814;SDS011;11069;48.988;8.450;2023-03-23T16:58:11;7.47;;;4.20;;
21814;SDS011;11069;48.988;8.450;2023-03-23T17:00:37;6.85;;;4.40;;
21814;SDS011;11069;48.988;8.450;2023-03-23T17:03:04;6.22;;;4.00;;
21814;SDS011;11069;48.988;8.450;2023-03-23T17:05:30;5.00;;;3.70;;
21814;SDS011;11069;48.988;8.450;2023-03-23T17:07:56;5.47;;;3.28;;
21814;SDS011;11069;48.988;8.450;2023-03-23T17:10:23;5.43;;;3.58;;
21814;SDS011;11069;48.988;8.450;2023-03-23T17:12:51;5.07;;;3.42;;
21814;SDS011;11069;48.988;8.450;2023-03-23T17:15:17;6.20;;;4.75;;
21814;SDS011;11069;48.988;8.450;2023-03-23T17:17:43;7.25;;;4.68;;
21814;SDS011;11069;48.988;8.450;2023-03-23T17:20:09;6.25;;;4.72;;
21814;SDS011;11069;48.988;8.450;2023-03-23T17:22:35;12.02;;;5.68;;
21814;SDS011;11069;48.988;8.450;2023-03-23T17:25:02;8.35;;;6.45;;
21814;SDS011;11069;48.988;8.450;2023-03-23T17:27:29;4.95;;;3.33;;
21814;SDS011;11069;48.988;8.450;2023-03-23T17:29:55;6.32;;;3.80;;
21814;SDS011;11069;48.988;8.450;2023-03-23T17:32:21;4.90;;;3.80;;
21814;SDS011;11069;48.988;8.450;2023-03-23T17:34:48;5.68;;;3.70;;
21814;SDS011;11069;48.988;8.450;2023-03-23T17:37:14;5.50;;;3.70;;
21814;SDS011;11069;48.988;8.450;2023-03-23T17:39:40;5.88;;;4.32;;
21814;SDS011;11069;48.988;8.450;2023-03-23T17:42:06;4.72;;;3.38;;
21814;SDS011;11069;48.988;8.450;2023-03-23T17:44:31;7.15;;;3.95;;
21814;SDS011;11069;48.988;8.450;2023-03-23T17:46:57;9.68;;;5.70;;
21814;SDS011;11069;48.988;8.450;2023-03-23T17:49:24;6.80;;;4.10;;
21814;SDS011;11069;48.988;8.450;2023-03-23T17:51:51;4.70;;;3.70;;
21814;SDS011;11069;48.988;8.450;2023-03-23T17:54:17;5.63;;;3.92;;
21814;SDS011;11069;48.988;8.450;2023-03-23T17:56:42;6.88;;;3.70;;